createdAt,value
2018-06-30T00:00:43.978Z,935.69
2018-06-30T00:01:43.992Z,935.67
2018-06-30T00:02:44.009Z,935.71
2018-06-30T00:03:44.150Z,935.68
2018-06-30T00:04:44.043Z,935.69
2018-06-30T00:05:44.057Z,935.71
2018-06-30T00:06:44.084Z,935.74
2018-06-30T00:07:44.105Z,935.77
2018-06-30T00:08:44.247Z,935.77
2018-06-30T00:09:44.107Z,935.74
2018-06-30T00:10:44.137Z,935.78
2018-06-30T00:11:44.170Z,935.75
2018-06-30T00:12:44.157Z,935.73
2018-06-30T00:13:44.341Z,935.73
2018-06-30T00:14:44.187Z,935.76
2018-06-30T00:15:44.209Z,935.73
2018-06-30T00:16:44.215Z,935.72
2018-06-30T00:17:44.226Z,935.70
2018-06-30T00:18:44.340Z,935.68
2018-06-30T00:19:44.266Z,935.67
2018-06-30T00:20:44.266Z,935.69
2018-06-30T00:21:44.285Z,935.70
2018-06-30T00:22:44.300Z,935.68
2018-06-30T00:23:44.408Z,935.66
2018-06-30T00:24:44.347Z,935.65
2018-06-30T00:25:44.365Z,935.65
2018-06-30T00:26:44.363Z,935.69
2018-06-30T00:27:44.391Z,935.72
2018-06-30T00:28:44.513Z,935.71
2018-06-30T00:29:44.423Z,935.76
2018-06-30T00:30:44.407Z,935.76
2018-06-30T00:31:44.424Z,935.80
2018-06-30T00:32:44.464Z,935.82
2018-06-30T00:33:44.622Z,935.82
2018-06-30T00:34:44.462Z,935.82
2018-06-30T00:35:44.504Z,935.79
2018-06-30T00:36:44.495Z,935.85
2018-06-30T00:37:44.504Z,935.81
2018-06-30T00:38:44.677Z,935.83
2018-06-30T00:39:44.537Z,935.85
2018-06-30T00:40:44.579Z,935.90
2018-06-30T00:41:44.565Z,935.87
2018-06-30T00:42:44.577Z,935.88
2018-06-30T00:43:44.592Z,935.88
2018-06-30T00:44:44.711Z,935.87
2018-06-30T00:45:44.619Z,935.86
2018-06-30T00:46:44.668Z,935.87
2018-06-30T00:47:44.649Z,935.89
2018-06-30T00:48:44.670Z,935.87
2018-06-30T00:49:44.848Z,935.86
2018-06-30T00:50:44.719Z,935.85
2018-06-30T00:51:44.732Z,935.85
2018-06-30T00:52:44.720Z,935.83
2018-06-30T00:53:44.747Z,935.83
2018-06-30T00:54:44.959Z,935.81
2018-06-30T00:55:44.792Z,935.83
2018-06-30T00:56:44.805Z,935.84
2018-06-30T00:57:44.794Z,935.79
2018-06-30T00:58:44.810Z,935.76
2018-06-30T00:59:44.910Z,935.74
2018-06-30T01:00:44.845Z,935.74
2018-06-30T01:01:44.847Z,935.71
2018-06-30T01:02:44.885Z,935.73
2018-06-30T01:03:44.897Z,935.71
2018-06-30T01:04:44.988Z,935.72
2018-06-30T01:05:44.902Z,935.71
2018-06-30T01:06:44.938Z,935.70
2018-06-30T01:07:44.926Z,935.69
2018-06-30T01:08:44.969Z,935.71
2018-06-30T01:09:45.114Z,935.67
2018-06-30T01:10:44.971Z,935.68
2018-06-30T01:11:45.025Z,935.68
2018-06-30T01:12:45.027Z,935.64
2018-06-30T01:13:45.023Z,935.66
2018-06-30T01:14:45.157Z,935.62
2018-06-30T01:15:45.065Z,935.67
2018-06-30T01:16:45.052Z,935.64
2018-06-30T01:17:45.092Z,935.62
2018-06-30T01:18:45.086Z,935.60
2018-06-30T01:19:45.209Z,935.59
2018-06-30T01:20:45.136Z,935.57
2018-06-30T01:21:45.123Z,935.56
2018-06-30T01:22:45.140Z,935.55
2018-06-30T01:23:45.152Z,935.54
2018-06-30T01:24:45.269Z,935.50
2018-06-30T01:25:45.201Z,935.46
2018-06-30T01:26:45.195Z,935.47
2018-06-30T01:27:45.215Z,935.41
2018-06-30T01:28:45.242Z,935.41
2018-06-30T01:29:45.339Z,935.38
2018-06-30T01:30:45.252Z,935.42
2018-06-30T01:31:45.270Z,935.37
2018-06-30T01:32:45.300Z,935.41
2018-06-30T01:33:45.314Z,935.33
2018-06-30T01:34:45.447Z,935.34
2018-06-30T01:35:45.314Z,935.32
2018-06-30T01:36:45.339Z,935.34
2018-06-30T01:37:45.339Z,935.36
2018-06-30T01:38:45.353Z,935.32
2018-06-30T01:39:45.495Z,935.36
2018-06-30T01:40:45.386Z,935.34
2018-06-30T01:41:45.407Z,935.32
2018-06-30T01:42:45.417Z,935.31
2018-06-30T01:43:45.441Z,935.27
2018-06-30T01:44:45.586Z,935.27
2018-06-30T01:45:45.480Z,935.29
2018-06-30T01:46:45.465Z,935.28
2018-06-30T01:47:45.510Z,935.29
2018-06-30T01:48:45.496Z,935.27
2018-06-30T01:49:45.617Z,935.29
2018-06-30T01:50:45.537Z,935.29
2018-06-30T01:51:45.535Z,935.31
2018-06-30T01:52:45.575Z,935.30
2018-06-30T01:53:45.591Z,935.35
2018-06-30T01:54:45.690Z,935.36
2018-06-30T01:55:45.591Z,935.37
2018-06-30T01:56:45.598Z,935.40
2018-06-30T01:57:45.632Z,935.38
2018-06-30T01:58:45.630Z,935.36
2018-06-30T01:59:45.671Z,935.40
2018-06-30T02:00:45.762Z,935.42
2018-06-30T02:01:45.680Z,935.43
2018-06-30T02:02:45.686Z,935.45
2018-06-30T02:03:45.702Z,935.47
2018-06-30T02:04:45.745Z,935.47
2018-06-30T02:05:45.824Z,935.51
2018-06-30T02:06:45.744Z,935.51
2018-06-30T02:07:45.769Z,935.58
2018-06-30T02:08:45.776Z,935.58
2018-06-30T02:09:45.781Z,935.53
2018-06-30T02:10:45.957Z,935.58
2018-06-30T02:11:45.816Z,935.58
2018-06-30T02:12:45.830Z,935.52
2018-06-30T02:13:45.861Z,935.52
2018-06-30T02:14:45.850Z,935.51
2018-06-30T02:15:46.047Z,935.49
2018-06-30T02:16:45.881Z,935.55
2018-06-30T02:17:45.896Z,935.57
2018-06-30T02:18:45.932Z,935.57
2018-06-30T02:19:45.929Z,935.60
2018-06-30T02:20:46.076Z,935.60
2018-06-30T02:21:45.946Z,935.65
2018-06-30T02:22:45.955Z,935.63
2018-06-30T02:23:45.981Z,935.66
2018-06-30T02:24:46.058Z,935.68
2018-06-30T02:25:46.177Z,935.71
2018-06-30T02:26:46.014Z,935.67
2018-06-30T02:27:46.029Z,935.66
2018-06-30T02:28:46.064Z,935.69
2018-06-30T02:29:46.085Z,935.72
2018-06-30T02:30:46.166Z,935.70
2018-06-30T02:31:46.105Z,935.71
2018-06-30T02:32:46.093Z,935.74
2018-06-30T02:33:46.134Z,935.76
2018-06-30T02:34:46.122Z,935.72
2018-06-30T02:35:46.259Z,935.69
2018-06-30T02:36:46.150Z,935.72
2018-06-30T02:37:46.164Z,935.69
2018-06-30T02:38:46.179Z,935.71
2018-06-30T02:39:46.220Z,935.71
2018-06-30T02:40:46.349Z,935.67
2018-06-30T02:41:46.216Z,935.63
2018-06-30T02:42:46.232Z,935.64
2018-06-30T02:43:46.270Z,935.62
2018-06-30T02:44:46.287Z,935.62
2018-06-30T02:45:46.376Z,935.58
2018-06-30T02:46:46.290Z,935.60
2018-06-30T02:47:46.302Z,935.61
2018-06-30T02:48:46.315Z,935.54
2018-06-30T02:49:46.329Z,935.54
2018-06-30T02:50:46.447Z,935.50
2018-06-30T02:51:46.353Z,935.49
2018-06-30T02:52:46.370Z,935.46
2018-06-30T02:53:46.403Z,935.50
2018-06-30T02:54:46.418Z,935.49
2018-06-30T02:55:46.558Z,935.48
2018-06-30T02:56:46.422Z,935.49
2018-06-30T02:57:46.435Z,935.45
2018-06-30T02:58:46.472Z,935.47
2018-06-30T02:59:46.485Z,935.47
2018-06-30T03:00:46.572Z,935.48
2018-06-30T03:01:46.512Z,935.46
2018-06-30T03:02:46.527Z,935.43
2018-06-30T03:03:46.538Z,935.42
2018-06-30T03:04:46.527Z,935.43
2018-06-30T03:05:46.639Z,935.43
2018-06-30T03:06:46.552Z,935.41
2018-06-30T03:07:46.594Z,935.46
2018-06-30T03:08:46.606Z,935.47
2018-06-30T03:09:46.621Z,935.51
2018-06-30T03:10:46.635Z,935.52
2018-06-30T03:11:46.734Z,935.53
2018-06-30T03:12:46.637Z,935.54
2018-06-30T03:13:46.673Z,935.50
2018-06-30T03:14:46.692Z,935.45
2018-06-30T03:15:46.674Z,935.50
2018-06-30T03:16:46.816Z,935.45
2018-06-30T03:17:46.700Z,935.43
2018-06-30T03:18:46.722Z,935.43
2018-06-30T03:19:46.730Z,935.45
2018-06-30T03:20:46.768Z,935.44
2018-06-30T03:21:46.852Z,935.47
2018-06-30T03:22:46.798Z,935.46
2018-06-30T03:23:46.791Z,935.47
2018-06-30T03:24:46.818Z,935.51
2018-06-30T03:25:46.806Z,935.49
2018-06-30T03:26:46.984Z,935.50
2018-06-30T03:27:46.860Z,935.53
2018-06-30T03:28:46.845Z,935.52
2018-06-30T03:29:46.874Z,935.53
2018-06-30T03:30:46.900Z,935.56
2018-06-30T03:31:47.197Z,935.58
2018-06-30T03:32:46.930Z,935.55
2018-06-30T03:33:46.928Z,935.58
2018-06-30T03:34:46.959Z,935.58
2018-06-30T03:35:46.968Z,935.59
2018-06-30T03:36:47.129Z,935.62
2018-06-30T03:37:46.971Z,935.61
2018-06-30T03:38:46.978Z,935.62
2018-06-30T03:39:47.020Z,935.61
2018-06-30T03:40:47.016Z,935.62
2018-06-30T03:41:47.167Z,935.62
2018-06-30T03:42:47.056Z,935.61
2018-06-30T03:43:47.070Z,935.64
2018-06-30T03:44:47.084Z,935.62
2018-06-30T03:45:47.095Z,935.63
2018-06-30T03:46:47.254Z,935.61
2018-06-30T03:47:47.098Z,935.63
2018-06-30T03:48:47.115Z,935.59
2018-06-30T03:49:47.140Z,935.62
2018-06-30T03:50:47.143Z,935.60
2018-06-30T03:51:47.308Z,935.58
2018-06-30T03:52:47.197Z,935.57
2018-06-30T03:53:47.200Z,935.58
2018-06-30T03:54:47.196Z,935.58
2018-06-30T03:55:47.198Z,935.57
2018-06-30T03:56:47.392Z,935.59
2018-06-30T03:57:47.227Z,935.63
2018-06-30T03:58:47.248Z,935.63
2018-06-30T03:59:47.283Z,935.65
2018-06-30T04:00:47.301Z,935.64
2018-06-30T04:01:47.461Z,935.66
2018-06-30T04:02:47.292Z,935.62
2018-06-30T04:03:47.324Z,935.59
2018-06-30T04:04:47.320Z,935.55
2018-06-30T04:05:47.359Z,935.57
2018-06-30T04:06:47.499Z,935.53
2018-06-30T04:07:47.368Z,935.51
2018-06-30T04:08:47.374Z,935.53
2018-06-30T04:09:47.385Z,935.56
2018-06-30T04:10:47.401Z,935.54
2018-06-30T04:11:47.566Z,935.50
2018-06-30T04:12:47.433Z,935.49
2018-06-30T04:13:47.450Z,935.46
2018-06-30T04:14:47.476Z,935.47
2018-06-30T04:15:47.492Z,935.52
2018-06-30T04:16:47.630Z,935.47
2018-06-30T04:17:47.497Z,935.49
2018-06-30T04:18:47.528Z,935.51
2018-06-30T04:19:47.523Z,935.47
2018-06-30T04:20:47.540Z,935.51
2018-06-30T04:21:47.549Z,935.52
2018-06-30T04:22:47.710Z,935.48
2018-06-30T04:23:47.580Z,935.44
2018-06-30T04:24:47.583Z,935.42
2018-06-30T04:25:47.631Z,935.42
2018-06-30T04:26:47.609Z,935.39
2018-06-30T04:27:47.800Z,935.33
2018-06-30T04:28:47.658Z,935.36
2018-06-30T04:29:47.664Z,935.35
2018-06-30T04:30:47.687Z,935.35
2018-06-30T04:31:47.687Z,935.36
2018-06-30T04:32:47.860Z,935.36
2018-06-30T04:33:47.729Z,935.35
2018-06-30T04:34:47.709Z,935.37
2018-06-30T04:35:47.753Z,935.33
2018-06-30T04:36:47.739Z,935.36
2018-06-30T04:37:47.872Z,935.31
2018-06-30T04:38:47.771Z,935.33
2018-06-30T04:39:47.772Z,935.31
2018-06-30T04:40:47.815Z,935.32
2018-06-30T04:41:47.813Z,935.29
2018-06-30T04:42:47.912Z,935.29
2018-06-30T04:43:47.827Z,935.28
2018-06-30T04:44:47.849Z,935.28
2018-06-30T04:45:47.851Z,935.32
2018-06-30T04:46:47.865Z,935.33
2018-06-30T04:47:48.034Z,935.32
2018-06-30T04:48:47.896Z,935.31
2018-06-30T04:49:47.926Z,935.30
2018-06-30T04:50:47.913Z,935.27
2018-06-30T04:51:47.933Z,935.24
2018-06-30T04:52:48.048Z,935.20
2018-06-30T04:53:47.950Z,935.23
2018-06-30T04:54:47.966Z,935.23
2018-06-30T04:55:48.003Z,935.20
2018-06-30T04:56:48.020Z,935.20
2018-06-30T04:57:48.153Z,935.17
2018-06-30T04:58:48.015Z,935.19
2018-06-30T04:59:48.043Z,935.18
2018-06-30T05:00:48.045Z,935.17
2018-06-30T05:01:48.056Z,935.13
2018-06-30T05:02:48.242Z,935.15
2018-06-30T05:03:48.093Z,935.13
2018-06-30T05:04:48.093Z,935.17
2018-06-30T05:05:48.136Z,935.14
2018-06-30T05:06:48.124Z,935.15
2018-06-30T05:07:48.313Z,935.17
2018-06-30T05:08:48.145Z,935.15
2018-06-30T05:09:48.161Z,935.14
2018-06-30T05:10:48.194Z,935.11
2018-06-30T05:11:48.184Z,935.13
2018-06-30T05:12:48.391Z,935.12
2018-06-30T05:13:48.209Z,935.13
2018-06-30T05:14:48.225Z,935.15
2018-06-30T05:15:48.230Z,935.12
2018-06-30T05:16:48.267Z,935.10
2018-06-30T05:17:48.382Z,935.12
2018-06-30T05:18:48.265Z,935.12
2018-06-30T05:19:48.287Z,935.13
2018-06-30T05:20:48.293Z,935.10
2018-06-30T05:21:48.333Z,935.10
2018-06-30T05:22:48.495Z,935.06
2018-06-30T05:23:48.333Z,935.08
2018-06-30T05:24:48.370Z,935.09
2018-06-30T05:25:48.420Z,935.07
2018-06-30T05:26:48.395Z,935.10
2018-06-30T05:27:48.482Z,935.07
2018-06-30T05:28:48.389Z,935.09
2018-06-30T05:29:48.437Z,935.06
2018-06-30T05:30:48.420Z,935.09
2018-06-30T05:31:48.458Z,935.10
2018-06-30T05:32:48.609Z,935.08
2018-06-30T05:33:48.482Z,935.06
2018-06-30T05:34:48.480Z,935.12
2018-06-30T05:35:48.506Z,935.13
2018-06-30T05:36:48.493Z,935.15
2018-06-30T05:37:48.504Z,935.15
2018-06-30T05:38:48.643Z,935.18
2018-06-30T05:39:48.533Z,935.19
2018-06-30T05:40:48.568Z,935.21
2018-06-30T05:41:48.558Z,935.17
2018-06-30T05:42:48.567Z,935.19
2018-06-30T05:43:48.583Z,935.19
2018-06-30T05:44:48.739Z,935.20
2018-06-30T05:45:48.619Z,935.22
2018-06-30T05:46:48.624Z,935.22
2018-06-30T05:47:48.657Z,935.24
2018-06-30T05:48:48.670Z,935.23
2018-06-30T05:49:48.758Z,935.23
2018-06-30T05:50:48.701Z,935.27
2018-06-30T05:51:48.701Z,935.27
2018-06-30T05:52:48.718Z,935.28
2018-06-30T05:53:48.713Z,935.26
2018-06-30T05:54:48.872Z,935.22
2018-06-30T05:55:48.737Z,935.22
2018-06-30T05:56:48.769Z,935.23
2018-06-30T05:57:48.763Z,935.25
2018-06-30T05:58:48.771Z,935.28
2018-06-30T05:59:48.913Z,935.24
2018-06-30T06:00:48.856Z,935.24
2018-06-30T06:01:48.832Z,935.19
2018-06-30T06:02:48.818Z,935.21
2018-06-30T06:03:48.836Z,935.24
2018-06-30T06:04:49.030Z,935.20
2018-06-30T06:05:48.859Z,935.17
2018-06-30T06:06:48.873Z,935.13
2018-06-30T06:07:48.905Z,935.16
2018-06-30T06:08:48.923Z,935.18
2018-06-30T06:09:49.040Z,935.19
2018-06-30T06:10:48.934Z,935.19
2018-06-30T06:11:48.930Z,935.21
2018-06-30T06:12:48.976Z,935.21
2018-06-30T06:13:48.955Z,935.20
2018-06-30T06:14:49.137Z,935.21
2018-06-30T06:15:49.008Z,935.19
2018-06-30T06:16:49.009Z,935.16
2018-06-30T06:17:49.008Z,935.13
2018-06-30T06:18:49.016Z,935.08
2018-06-30T06:19:49.141Z,935.09
2018-06-30T06:20:49.071Z,935.09
2018-06-30T06:21:49.054Z,935.09
2018-06-30T06:22:49.069Z,935.10
2018-06-30T06:23:49.087Z,935.12
2018-06-30T06:24:49.255Z,935.10
2018-06-30T06:25:49.151Z,935.10
2018-06-30T06:26:49.120Z,935.12
2018-06-30T06:27:49.159Z,935.10
2018-06-30T06:28:49.140Z,935.10
2018-06-30T06:29:49.303Z,935.09
2018-06-30T06:30:49.185Z,935.12
2018-06-30T06:31:49.185Z,935.10
2018-06-30T06:32:49.228Z,935.08
2018-06-30T06:33:49.230Z,935.07
2018-06-30T06:34:49.322Z,935.05
2018-06-30T06:35:49.253Z,935.09
2018-06-30T06:36:49.252Z,935.06
2018-06-30T06:37:49.255Z,935.01
2018-06-30T06:38:49.298Z,935.02
2018-06-30T06:39:49.426Z,934.99
2018-06-30T06:40:49.289Z,934.96
2018-06-30T06:41:49.306Z,934.99
2018-06-30T06:42:49.341Z,934.94
2018-06-30T06:43:49.327Z,934.93
2018-06-30T06:44:49.521Z,934.91
2018-06-30T06:45:49.379Z,934.94
2018-06-30T06:46:49.364Z,934.94
2018-06-30T06:47:49.377Z,934.91
2018-06-30T06:48:49.415Z,934.92
2018-06-30T06:49:49.501Z,934.88
2018-06-30T06:50:49.449Z,934.84
2018-06-30T06:51:49.431Z,934.81
2018-06-30T06:52:49.437Z,934.79
2018-06-30T06:53:49.447Z,934.80
2018-06-30T06:54:49.616Z,934.75
2018-06-30T06:55:49.477Z,934.81
2018-06-30T06:56:49.490Z,934.81
2018-06-30T06:57:49.511Z,934.78
2018-06-30T06:58:49.512Z,934.82
2018-06-30T06:59:49.518Z,934.84
2018-06-30T07:00:49.636Z,934.83
2018-06-30T07:01:49.545Z,934.86
2018-06-30T07:02:49.557Z,934.83
2018-06-30T07:03:49.571Z,934.77
2018-06-30T07:04:49.583Z,934.74
2018-06-30T07:05:49.747Z,934.74
2018-06-30T07:06:49.624Z,934.72
2018-06-30T07:07:49.633Z,934.72
2018-06-30T07:08:49.639Z,934.70
2018-06-30T07:09:49.649Z,934.71
2018-06-30T07:10:49.801Z,934.74
2018-06-30T07:11:49.667Z,934.74
2018-06-30T07:12:49.712Z,934.80
2018-06-30T07:13:49.692Z,934.78
2018-06-30T07:14:49.712Z,934.75
2018-06-30T07:15:49.827Z,934.77
2018-06-30T07:16:49.731Z,934.74
2018-06-30T07:17:49.738Z,934.72
2018-06-30T07:18:49.768Z,934.73
2018-06-30T07:19:49.764Z,934.72
2018-06-30T07:20:49.954Z,934.74
2018-06-30T07:21:49.786Z,934.77
2018-06-30T07:22:49.827Z,934.79
2018-06-30T07:23:49.841Z,934.80
2018-06-30T07:24:49.820Z,934.80
2018-06-30T07:25:50.002Z,934.82
2018-06-30T07:26:49.847Z,934.79
2018-06-30T07:27:49.890Z,934.80
2018-06-30T07:28:49.877Z,934.79
2018-06-30T07:29:49.913Z,934.73
2018-06-30T07:30:50.018Z,934.77
2018-06-30T07:31:49.909Z,934.74
2018-06-30T07:32:49.952Z,934.74
2018-06-30T07:33:49.938Z,934.76
2018-06-30T07:34:49.964Z,934.76
2018-06-30T07:35:50.121Z,934.75
2018-06-30T07:36:49.990Z,934.73
2018-06-30T07:37:49.985Z,934.73
2018-06-30T07:38:50.001Z,934.71
2018-06-30T07:39:50.009Z,934.72
2018-06-30T07:40:50.342Z,934.74
2018-06-30T07:41:50.235Z,934.72
2018-06-30T07:42:50.227Z,934.73
2018-06-30T07:43:50.197Z,934.70
2018-06-30T07:44:50.179Z,934.71
2018-06-30T07:45:50.257Z,934.71
2018-06-30T07:46:50.118Z,934.71
2018-06-30T07:47:50.114Z,934.70
2018-06-30T07:48:50.122Z,934.69
2018-06-30T07:49:50.128Z,934.72
2018-06-30T07:50:50.245Z,934.71
2018-06-30T07:51:50.175Z,934.72
2018-06-30T07:52:50.166Z,934.74
2018-06-30T07:53:50.203Z,934.71
2018-06-30T07:54:50.190Z,934.71
2018-06-30T07:55:50.363Z,934.72
2018-06-30T07:56:50.214Z,934.70
2018-06-30T07:57:50.224Z,934.72
2018-06-30T07:58:50.236Z,934.74
2018-06-30T07:59:50.273Z,934.75
2018-06-30T08:00:50.370Z,934.76
2018-06-30T08:01:50.302Z,934.74
2018-06-30T08:02:50.310Z,934.73
2018-06-30T08:03:50.295Z,934.75
2018-06-30T08:04:50.305Z,934.75
2018-06-30T08:05:50.430Z,934.77
2018-06-30T08:06:50.358Z,934.73
2018-06-30T08:07:50.341Z,934.73
2018-06-30T08:08:50.383Z,934.71
2018-06-30T08:09:50.394Z,934.67
2018-06-30T08:10:50.532Z,934.69
2018-06-30T08:11:50.422Z,934.69
2018-06-30T08:12:50.406Z,934.76
2018-06-30T08:13:50.446Z,934.79
2018-06-30T08:14:50.449Z,934.80
2018-06-30T08:15:50.465Z,934.82
2018-06-30T08:16:50.596Z,934.80
2018-06-30T08:17:50.476Z,934.86
2018-06-30T08:18:50.480Z,934.87
2018-06-30T08:19:50.483Z,934.83
2018-06-30T08:20:50.501Z,934.84
2018-06-30T08:21:50.524Z,934.84
2018-06-30T08:22:50.648Z,934.81
2018-06-30T08:23:50.537Z,934.81
2018-06-30T08:24:50.552Z,934.85
2018-06-30T08:25:50.559Z,934.83
2018-06-30T08:26:50.598Z,934.84
2018-06-30T08:27:50.684Z,934.87
2018-06-30T08:28:50.604Z,934.89
2018-06-30T08:29:50.632Z,934.86
2018-06-30T08:30:50.640Z,934.91
2018-06-30T08:31:50.628Z,934.94
2018-06-30T08:32:50.768Z,934.93
2018-06-30T08:33:50.655Z,934.97
2018-06-30T08:34:50.688Z,934.99
2018-06-30T08:35:50.675Z,935.02
2018-06-30T08:36:50.714Z,935.02
2018-06-30T08:37:50.877Z,935.00
2018-06-30T08:38:50.740Z,935.01
2018-06-30T08:39:50.752Z,934.98
2018-06-30T08:40:50.748Z,934.98
2018-06-30T08:41:50.749Z,934.99
2018-06-30T08:42:50.867Z,934.94
2018-06-30T08:43:50.774Z,934.95
2018-06-30T08:44:50.813Z,934.97
2018-06-30T08:45:50.801Z,935.02
2018-06-30T08:46:50.816Z,935.02
2018-06-30T08:47:50.968Z,935.01
2018-06-30T08:48:50.856Z,935.09
2018-06-30T08:49:50.865Z,935.05
2018-06-30T08:50:50.867Z,935.05
2018-06-30T08:51:50.882Z,935.10
2018-06-30T08:52:51.010Z,935.09
2018-06-30T08:53:50.889Z,935.09
2018-06-30T08:54:50.900Z,935.11
2018-06-30T08:55:50.937Z,935.08
2018-06-30T08:56:50.965Z,935.06
2018-06-30T08:57:51.043Z,935.08
2018-06-30T08:58:50.956Z,935.07
2018-06-30T08:59:50.971Z,935.08
2018-06-30T09:00:50.971Z,935.05
2018-06-30T09:01:51.011Z,935.10
2018-06-30T09:02:51.120Z,935.15
2018-06-30T09:03:51.015Z,935.16
2018-06-30T09:04:51.046Z,935.17
2018-06-30T09:05:51.043Z,935.18
2018-06-30T09:06:51.046Z,935.18
2018-06-30T09:07:51.154Z,935.20
2018-06-30T09:08:51.068Z,935.20
2018-06-30T09:09:51.089Z,935.21
2018-06-30T09:10:51.122Z,935.23
2018-06-30T09:11:51.181Z,935.24
2018-06-30T09:12:51.209Z,935.20
2018-06-30T09:13:51.131Z,935.21
2018-06-30T09:14:51.132Z,935.21
2018-06-30T09:15:51.166Z,935.18
2018-06-30T09:16:51.159Z,935.16
2018-06-30T09:17:51.284Z,935.23
2018-06-30T09:18:51.185Z,935.22
2018-06-30T09:19:51.198Z,935.20
2018-06-30T09:20:51.203Z,935.24
2018-06-30T09:21:51.243Z,935.25
2018-06-30T09:22:51.405Z,935.25
2018-06-30T09:23:51.240Z,935.23
2018-06-30T09:24:51.278Z,935.25
2018-06-30T09:25:51.297Z,935.20
2018-06-30T09:26:51.305Z,935.17
2018-06-30T09:27:51.390Z,935.15
2018-06-30T09:28:51.331Z,935.16
2018-06-30T09:29:51.310Z,935.14
2018-06-30T09:30:51.352Z,935.14
2018-06-30T09:31:51.365Z,935.17
2018-06-30T09:32:51.481Z,935.19
2018-06-30T09:33:51.384Z,935.17
2018-06-30T09:34:51.370Z,935.21
2018-06-30T09:35:51.386Z,935.21
2018-06-30T09:36:51.401Z,935.21
2018-06-30T09:37:51.513Z,935.22
2018-06-30T09:38:51.445Z,935.24
2018-06-30T09:39:51.433Z,935.27
2018-06-30T09:40:51.445Z,935.29
2018-06-30T09:41:51.468Z,935.28
2018-06-30T09:42:51.499Z,935.23
2018-06-30T09:43:51.627Z,935.25
2018-06-30T09:44:51.498Z,935.22
2018-06-30T09:45:51.499Z,935.22
2018-06-30T09:46:51.543Z,935.22
2018-06-30T09:47:51.526Z,935.23
2018-06-30T09:48:51.635Z,935.24
2018-06-30T09:49:51.552Z,935.26
2018-06-30T09:50:51.579Z,935.24
2018-06-30T09:51:51.602Z,935.20
2018-06-30T09:52:51.584Z,935.21
2018-06-30T09:53:51.691Z,935.23
2018-06-30T09:54:51.606Z,935.23
2018-06-30T09:55:51.618Z,935.28
2018-06-30T09:56:51.654Z,935.29
2018-06-30T09:57:51.646Z,935.30
2018-06-30T09:58:51.834Z,935.30
2018-06-30T09:59:51.691Z,935.33
2018-06-30T10:00:51.686Z,935.35
2018-06-30T10:01:51.698Z,935.32
2018-06-30T10:02:51.698Z,935.29
2018-06-30T10:03:51.866Z,935.29
2018-06-30T10:04:51.724Z,935.33
2018-06-30T10:05:51.739Z,935.30
2018-06-30T10:06:51.808Z,935.31
2018-06-30T10:07:51.758Z,935.29
2018-06-30T10:08:51.893Z,935.32
2018-06-30T10:09:51.806Z,935.32
2018-06-30T10:10:51.803Z,935.30
2018-06-30T10:11:51.803Z,935.39
2018-06-30T10:12:51.844Z,935.37
2018-06-30T10:13:51.926Z,935.37
2018-06-30T10:14:51.847Z,935.34
2018-06-30T10:15:51.851Z,935.35
2018-06-30T10:16:51.867Z,935.34
2018-06-30T10:17:51.943Z,935.35
2018-06-30T10:18:51.992Z,935.37
2018-06-30T10:19:51.932Z,935.35
2018-06-30T10:20:51.929Z,935.37
2018-06-30T10:21:51.932Z,935.42
2018-06-30T10:22:51.936Z,935.42
2018-06-30T10:23:52.049Z,935.43
2018-06-30T10:24:51.967Z,935.40
2018-06-30T10:25:51.971Z,935.45
2018-06-30T10:26:52.011Z,935.46
2018-06-30T10:27:51.998Z,935.45
2018-06-30T10:28:52.163Z,935.45
2018-06-30T10:29:52.022Z,935.46
2018-06-30T10:30:52.047Z,935.47
2018-06-30T10:31:52.047Z,935.44
2018-06-30T10:32:52.074Z,935.44
2018-06-30T10:33:52.170Z,935.46
2018-06-30T10:34:52.110Z,935.44
2018-06-30T10:35:52.100Z,935.45
2018-06-30T10:36:52.106Z,935.45
2018-06-30T10:37:52.123Z,935.46
2018-06-30T10:38:52.229Z,935.45
2018-06-30T10:39:52.141Z,935.45
2018-06-30T10:40:52.187Z,935.47
2018-06-30T10:41:52.199Z,935.49
2018-06-30T10:42:52.176Z,935.53
2018-06-30T10:43:52.291Z,935.54
2018-06-30T10:44:52.203Z,935.54
2018-06-30T10:45:52.248Z,935.55
2018-06-30T10:46:52.242Z,935.54
2018-06-30T10:47:52.267Z,935.58
2018-06-30T10:48:52.366Z,935.56
2018-06-30T10:49:52.265Z,935.59
2018-06-30T10:50:52.304Z,935.62
2018-06-30T10:51:52.293Z,935.64
2018-06-30T10:52:52.329Z,935.64
2018-06-30T10:53:52.492Z,935.68
2018-06-30T10:54:52.332Z,935.68
2018-06-30T10:55:52.342Z,935.71
2018-06-30T10:56:52.357Z,935.75
2018-06-30T10:57:52.391Z,935.73
2018-06-30T10:58:52.479Z,935.73
2018-06-30T10:59:52.421Z,935.77
2018-06-30T11:00:52.434Z,935.75
2018-06-30T11:01:52.419Z,935.77
2018-06-30T11:02:52.434Z,935.79
2018-06-30T11:03:52.525Z,935.79
2018-06-30T11:04:52.610Z,935.79
2018-06-30T11:05:52.480Z,935.81
2018-06-30T11:06:52.509Z,935.80
2018-06-30T11:07:52.496Z,935.85
2018-06-30T11:08:52.511Z,935.85
2018-06-30T11:09:52.647Z,935.85
2018-06-30T11:10:52.600Z,935.83
2018-06-30T11:11:52.559Z,935.88
2018-06-30T11:12:52.591Z,935.88
2018-06-30T11:13:52.583Z,935.88
2018-06-30T11:14:52.736Z,935.88
2018-06-30T11:15:52.628Z,935.89
2018-06-30T11:16:52.645Z,935.93
2018-06-30T11:17:52.645Z,935.95
2018-06-30T11:18:52.667Z,935.96
2018-06-30T11:19:52.784Z,935.93
2018-06-30T11:20:52.678Z,935.91
2018-06-30T11:21:52.692Z,935.95
2018-06-30T11:22:52.691Z,935.95
2018-06-30T11:23:52.734Z,935.92
2018-06-30T11:24:52.902Z,935.90
2018-06-30T11:25:52.739Z,935.89
2018-06-30T11:26:52.778Z,935.89
2018-06-30T11:27:52.767Z,935.88
2018-06-30T11:28:52.784Z,935.90
2018-06-30T11:29:52.944Z,935.93
2018-06-30T11:30:52.835Z,935.89
2018-06-30T11:31:52.822Z,935.90
2018-06-30T11:32:52.861Z,935.88
2018-06-30T11:33:52.852Z,935.92
2018-06-30T11:34:53.014Z,935.90
2018-06-30T11:35:52.896Z,935.89
2018-06-30T11:36:52.893Z,935.88
2018-06-30T11:37:52.905Z,935.91
2018-06-30T11:38:52.951Z,935.92
2018-06-30T11:39:53.096Z,935.91
2018-06-30T11:40:53.213Z,935.93
2018-06-30T11:41:52.964Z,935.94
2018-06-30T11:42:53.008Z,935.99
2018-06-30T11:43:52.993Z,935.96
2018-06-30T11:44:53.163Z,935.96
2018-06-30T11:45:53.025Z,935.94
2018-06-30T11:46:53.040Z,935.92
2018-06-30T11:47:53.050Z,935.91
2018-06-30T11:48:53.074Z,935.95
2018-06-30T11:49:53.236Z,935.91
2018-06-30T11:50:53.128Z,935.93
2018-06-30T11:51:53.141Z,935.94
2018-06-30T11:52:53.159Z,935.90
2018-06-30T11:53:53.150Z,935.97
2018-06-30T11:54:53.333Z,935.94
2018-06-30T11:55:53.176Z,936.01
2018-06-30T11:56:53.191Z,936.01
2018-06-30T11:57:53.205Z,936.03
2018-06-30T11:58:53.249Z,936.01
2018-06-30T11:59:53.392Z,936.00
2018-06-30T12:00:53.251Z,936.04
2018-06-30T12:01:53.293Z,936.04
2018-06-30T12:02:53.309Z,936.09
2018-06-30T12:03:53.322Z,936.07
2018-06-30T12:04:53.410Z,936.08
2018-06-30T12:05:53.327Z,936.04
2018-06-30T12:06:53.373Z,936.07
2018-06-30T12:07:53.388Z,936.07
2018-06-30T12:08:53.374Z,936.08
2018-06-30T12:09:53.570Z,936.01
2018-06-30T12:10:53.411Z,936.01
2018-06-30T12:11:53.428Z,936.06
2018-06-30T12:12:53.442Z,936.08
2018-06-30T12:13:53.483Z,936.04
2018-06-30T12:14:53.480Z,936.08
2018-06-30T12:15:53.663Z,936.04
2018-06-30T12:16:53.510Z,936.06
2018-06-30T12:17:53.548Z,936.05
2018-06-30T12:18:53.572Z,936.07
2018-06-30T12:19:53.561Z,936.02
2018-06-30T12:20:53.672Z,936.00
2018-06-30T12:21:53.633Z,936.02
2018-06-30T12:22:53.712Z,936.01
2018-06-30T12:23:53.628Z,935.99
2018-06-30T12:24:53.669Z,936.03
2018-06-30T12:25:53.771Z,936.03
2018-06-30T12:26:53.679Z,936.07
2018-06-30T12:27:53.696Z,936.10
2018-06-30T12:28:53.738Z,936.10